createdAt,value
2023-01-28T00:00:08.709Z,78.30
2023-01-28T00:02:38.074Z,77.90
2023-01-28T00:05:07.456Z,76.50
2023-01-28T00:07:36.420Z,77.60
2023-01-28T00:10:05.512Z,78.70
2023-01-28T00:12:34.437Z,82.40
2023-01-28T00:15:03.398Z,81.70
2023-01-28T00:17:32.252Z,81.50
2023-01-28T00:20:01.109Z,82.60
2023-01-28T00:22:30.084Z,81.70
2023-01-28T00:24:59.103Z,79.30
2023-01-28T00:27:28.084Z,79.90
2023-01-28T00:29:56.957Z,81.80
2023-01-28T00:32:25.860Z,81.30
2023-01-28T00:34:54.942Z,80.50
2023-01-28T00:37:23.848Z,82.20
2023-01-28T00:39:52.684Z,78.90
2023-01-28T00:42:21.702Z,80.00
2023-01-28T00:44:50.697Z,79.10
2023-01-28T00:47:19.561Z,79.00
2023-01-28T00:49:48.411Z,83.40
2023-01-28T00:52:17.402Z,81.00
2023-01-28T00:55:02.725Z,81.00
2023-01-28T00:57:31.609Z,78.90
2023-01-28T01:00:00.843Z,77.30
2023-01-28T01:02:29.964Z,76.00
2023-01-28T01:05:01.595Z,81.30
2023-01-28T01:07:44.652Z,77.30
2023-01-28T01:10:16.998Z,75.60
2023-01-28T01:12:49.671Z,77.40
2023-01-28T01:15:19.767Z,77.80
2023-01-28T01:17:50.891Z,77.60
2023-01-28T01:20:23.328Z,74.80
2023-01-28T01:22:52.308Z,74.40
2023-01-28T01:25:23.323Z,75.60
2023-01-28T01:27:52.346Z,74.30
2023-01-28T01:30:21.652Z,74.20
2023-01-28T01:32:50.713Z,77.00
2023-01-28T01:35:19.747Z,73.10
2023-01-28T01:37:48.651Z,72.60
2023-01-28T01:40:17.761Z,73.20
2023-01-28T01:42:49.189Z,74.30
2023-01-28T01:45:21.309Z,72.00
2023-01-28T01:48:14.620Z,71.20
2023-01-28T01:50:57.206Z,72.80
2023-01-28T01:53:28.190Z,70.80
2023-01-28T01:56:01.609Z,70.30
2023-01-28T01:58:35.117Z,70.00
2023-01-28T02:01:05.762Z,71.00
2023-01-28T02:03:56.715Z,70.40
2023-01-28T02:06:26.895Z,70.20
2023-01-28T02:08:57.596Z,69.70
2023-01-28T02:11:33.844Z,67.90
2023-01-28T02:14:06.432Z,69.30
2023-01-28T02:16:35.527Z,69.10
2023-01-28T02:19:04.523Z,67.90
2023-01-28T02:21:57.179Z,67.70
2023-01-28T02:24:55.391Z,68.20
2023-01-28T02:27:30.601Z,67.70
2023-01-28T02:30:17.763Z,68.00
2023-01-28T02:33:00.672Z,67.30
2023-01-28T02:35:48.636Z,66.60
2023-01-28T02:38:25.362Z,66.60
2023-01-28T02:41:07.014Z,63.20
2023-01-28T02:43:42.801Z,65.20
2023-01-28T02:46:59.112Z,64.30
2023-01-28T02:49:31.506Z,63.50
2023-01-28T02:52:14.845Z,63.40
2023-01-28T02:55:15.103Z,63.80
2023-01-28T02:58:10.236Z,63.50
2023-01-28T03:01:06.728Z,63.70
2023-01-28T03:04:01.201Z,61.60
2023-01-28T03:06:40.311Z,64.30
2023-01-28T03:09:25.409Z,62.90
2023-01-28T03:12:40.845Z,63.70
2023-01-28T03:15:33.578Z,59.80
2023-01-28T03:18:38.719Z,63.20
2023-01-28T03:21:27.316Z,63.80
2023-01-28T03:24:18.986Z,64.20
2023-01-28T03:27:20.345Z,62.70
2023-01-28T03:30:10.053Z,62.90
2023-01-28T03:32:59.379Z,60.30
2023-01-28T03:35:50.784Z,62.30
2023-01-28T03:38:24.036Z,62.40
2023-01-28T03:41:03.859Z,61.70
2023-01-28T03:43:33.272Z,60.60
2023-01-28T03:46:05.198Z,61.20
2023-01-28T03:48:34.249Z,59.80
2023-01-28T03:51:03.218Z,59.50
2023-01-28T03:53:32.180Z,59.80
2023-01-28T03:56:01.136Z,59.40
2023-01-28T03:58:50.142Z,56.30
2023-01-28T04:01:19.175Z,58.90
2023-01-28T04:03:48.041Z,58.80
2023-01-28T04:06:17.025Z,58.60
2023-01-28T04:08:50.112Z,58.50
2023-01-28T04:11:20.974Z,59.00
2023-01-28T04:13:50.798Z,57.50
2023-01-28T04:16:21.501Z,59.00
2023-01-28T04:18:50.478Z,58.10
2023-01-28T04:21:19.329Z,58.40
2023-01-28T04:23:48.239Z,58.80
2023-01-28T04:26:17.117Z,58.40
2023-01-28T04:28:45.958Z,58.30
2023-01-28T04:31:14.901Z,57.30
2023-01-28T04:33:43.776Z,58.70
2023-01-28T04:36:12.623Z,58.10
2023-01-28T04:38:41.616Z,58.00
2023-01-28T04:41:10.672Z,57.40
2023-01-28T04:43:42.312Z,57.50
2023-01-28T04:46:11.283Z,57.90
2023-01-28T04:48:40.181Z,57.10
2023-01-28T04:51:09.239Z,57.20
2023-01-28T04:53:38.239Z,56.50
2023-01-28T04:56:07.275Z,57.60
2023-01-28T04:58:36.297Z,57.50
2023-01-28T05:01:05.245Z,57.00
2023-01-28T05:03:36.269Z,55.20
2023-01-28T05:06:06.230Z,57.00
2023-01-28T05:08:35.108Z,57.30
2023-01-28T05:11:04.010Z,56.80
2023-01-28T05:13:32.955Z,56.70
2023-01-28T05:16:01.893Z,56.50
2023-01-28T05:18:30.831Z,56.60
2023-01-28T05:20:59.919Z,56.60
2023-01-28T05:23:28.800Z,55.60
2023-01-28T05:25:57.715Z,54.40
2023-01-28T05:28:26.778Z,56.50
2023-01-28T05:30:55.706Z,56.10
2023-01-28T05:33:24.643Z,56.00
2023-01-28T05:35:53.533Z,55.30
2023-01-28T05:38:22.497Z,53.90
2023-01-28T05:40:51.782Z,56.00
2023-01-28T05:43:20.677Z,56.10
2023-01-28T05:45:49.682Z,55.50
2023-01-28T05:48:18.631Z,56.10
2023-01-28T05:50:49.497Z,56.80
2023-01-28T05:53:18.490Z,56.30
2023-01-28T05:55:51.582Z,54.30
2023-01-28T05:58:21.366Z,55.20
2023-01-28T06:00:50.294Z,53.90
2023-01-28T06:03:19.249Z,54.30
2023-01-28T06:05:49.256Z,55.20
2023-01-28T06:08:18.187Z,55.70
2023-01-28T06:10:48.302Z,55.20
2023-01-28T06:13:17.205Z,55.50
2023-01-28T06:15:46.120Z,55.10
2023-01-28T06:18:15.049Z,55.40
2023-01-28T06:20:43.974Z,53.90
2023-01-28T06:23:13.053Z,54.40
2023-01-28T06:25:41.939Z,53.60
2023-01-28T06:28:11.059Z,54.30
2023-01-28T06:30:40.116Z,50.10
2023-01-28T06:33:08.977Z,53.70
2023-01-28T06:35:38.173Z,53.30
2023-01-28T06:38:07.078Z,54.70
2023-01-28T06:40:36.025Z,55.20
2023-01-28T06:43:05.830Z,54.50
2023-01-28T06:45:35.170Z,53.10
2023-01-28T06:48:04.347Z,53.60
2023-01-28T06:50:33.483Z,53.90
2023-01-28T06:53:02.367Z,53.80
2023-01-28T06:55:31.223Z,53.40
2023-01-28T06:58:00.247Z,53.20
2023-01-28T07:00:29.179Z,52.50
2023-01-28T07:02:58.645Z,53.50
2023-01-28T07:05:27.803Z,52.40
2023-01-28T07:07:59.637Z,53.00
2023-01-28T07:10:28.552Z,53.10
2023-01-28T07:12:57.449Z,52.90
2023-01-28T07:15:26.365Z,53.30
2023-01-28T07:17:55.278Z,52.60
2023-01-28T07:20:24.194Z,52.40
2023-01-28T07:22:53.328Z,52.40
2023-01-28T07:25:22.284Z,51.80
2023-01-28T07:27:52.809Z,52.30
2023-01-28T07:30:23.032Z,52.60
2023-01-28T07:32:57.039Z,51.70
2023-01-28T07:35:26.725Z,51.90
2023-01-28T07:38:01.164Z,52.20
2023-01-28T07:40:30.659Z,51.60
2023-01-28T07:42:59.644Z,50.50
2023-01-28T07:45:31.697Z,51.40
2023-01-28T07:48:04.393Z,51.60
2023-01-28T07:50:35.709Z,52.10
2023-01-28T07:53:10.330Z,51.40
2023-01-28T07:55:40.119Z,51.70
2023-01-28T07:58:10.167Z,51.50
2023-01-28T08:00:42.578Z,51.60
2023-01-28T08:03:16.876Z,46.40
2023-01-28T08:05:50.721Z,50.20
2023-01-28T08:08:21.779Z,51.50
2023-01-28T08:10:50.912Z,48.60
2023-01-28T08:13:20.855Z,51.60
2023-01-28T08:15:49.928Z,50.20
2023-01-28T08:18:19.635Z,50.70
2023-01-28T08:20:48.871Z,50.50
2023-01-28T08:23:20.743Z,50.80
2023-01-28T08:25:50.813Z,51.20
2023-01-28T08:28:26.126Z,51.50
2023-01-28T08:30:55.427Z,51.80
2023-01-28T08:33:24.397Z,51.60
2023-01-28T08:35:53.365Z,51.50
2023-01-28T08:38:22.312Z,51.00
2023-01-28T08:40:56.777Z,49.30
2023-01-28T08:43:25.867Z,51.10
2023-01-28T08:45:54.801Z,50.80
2023-01-28T08:48:23.754Z,51.10
2023-01-28T08:50:52.913Z,51.50
2023-01-28T08:53:22.464Z,50.40
2023-01-28T08:55:51.456Z,51.00
2023-01-28T08:58:20.566Z,51.10
2023-01-28T09:00:50.183Z,50.80
2023-01-28T09:03:19.958Z,49.50
2023-01-28T09:05:50.694Z,49.50
2023-01-28T09:08:19.699Z,50.30
2023-01-28T09:10:48.598Z,50.00
2023-01-28T09:13:18.125Z,50.20
2023-01-28T09:15:47.067Z,50.20
2023-01-28T09:18:16.052Z,49.40
2023-01-28T09:20:45.005Z,50.90
2023-01-28T09:23:14.508Z,50.20
2023-01-28T09:25:43.671Z,51.30
2023-01-28T09:28:12.683Z,50.70
2023-01-28T09:30:41.740Z,51.10
2023-01-28T09:33:10.754Z,49.10
2023-01-28T09:35:39.637Z,50.70
2023-01-28T09:38:08.590Z,50.30
2023-01-28T09:40:44.853Z,50.30
2023-01-28T09:43:50.729Z,50.50
2023-01-28T09:46:19.967Z,50.40
2023-01-28T09:48:54.650Z,51.00
2023-01-28T09:51:55.000Z,51.00
2023-01-28T09:54:31.981Z,50.30
2023-01-28T09:57:18.645Z,51.40
2023-01-28T09:59:47.615Z,49.00
2023-01-28T10:02:50.919Z,50.80
2023-01-28T10:05:39.932Z,51.10
2023-01-28T10:08:21.782Z,50.80
2023-01-28T10:11:06.577Z,51.00
2023-01-28T10:14:06.012Z,51.40
2023-01-28T10:16:47.349Z,51.00
2023-01-28T10:19:28.757Z,51.30
2023-01-28T10:22:06.483Z,51.50
2023-01-28T10:24:50.421Z,51.80
2023-01-28T10:27:23.865Z,51.80
2023-01-28T10:29:54.527Z,51.60
2023-01-28T10:32:38.062Z,51.80
2023-01-28T10:35:07.239Z,51.60
2023-01-28T10:37:38.496Z,51.70
2023-01-28T10:40:09.419Z,51.80
2023-01-28T10:42:40.576Z,51.90
2023-01-28T10:45:57.186Z,52.30
2023-01-28T10:48:38.916Z,51.90
2023-01-28T10:51:08.198Z,52.20
2023-01-28T10:53:47.440Z,52.30
2023-01-28T10:56:18.540Z,52.50
2023-01-28T10:59:23.976Z,52.50
2023-01-28T11:01:56.248Z,52.60
2023-01-28T11:04:36.379Z,52.70
2023-01-28T11:07:06.415Z,52.70
2023-01-28T11:09:39.626Z,53.00
2023-01-28T11:12:28.056Z,53.00
2023-01-28T11:14:58.464Z,52.90
2023-01-28T11:17:30.509Z,53.10
2023-01-28T11:20:03.219Z,53.10
2023-01-28T11:22:39.827Z,53.30
2023-01-28T11:25:21.757Z,53.40
2023-01-28T11:27:55.337Z,53.60
2023-01-28T11:30:27.101Z,53.60
2023-01-28T11:33:14.817Z,53.60
2023-01-28T11:35:43.829Z,53.70
2023-01-28T11:38:22.266Z,53.80
2023-01-28T11:40:59.539Z,53.90
2023-01-28T11:43:30.568Z,54.00
2023-01-28T11:46:31.295Z,54.00
2023-01-28T11:49:11.337Z,54.10
2023-01-28T11:52:12.417Z,54.20
2023-01-28T11:55:05.044Z,54.20
2023-01-28T11:58:05.036Z,54.30
2023-01-28T12:00:33.954Z,54.40
2023-01-28T12:03:42.992Z,54.40
2023-01-28T12:06:14.739Z,54.50
2023-01-28T12:09:01.578Z,54.60
2023-01-28T12:12:14.642Z,54.60
2023-01-28T12:15:04.495Z,54.70
2023-01-28T12:17:44.445Z,54.70
2023-01-28T12:20:51.948Z,54.90
2023-01-28T12:23:56.253Z,54.90
2023-01-28T12:26:54.101Z,55.00
2023-01-28T12:29:35.761Z,55.10
2023-01-28T12:32:25.827Z,55.10
2023-01-28T12:35:03.527Z,55.20
2023-01-28T12:37:44.437Z,55.20
2023-01-28T12:40:27.439Z,55.30
2023-01-28T12:43:19.769Z,55.30
2023-01-28T12:46:19.675Z,55.40
2023-01-28T12:49:22.631Z,55.60
2023-01-28T12:52:04.641Z,55.40
2023-01-28T12:54:47.448Z,55.60
2023-01-28T12:57:24.716Z,55.60
2023-01-28T13:00:16.989Z,55.70
2023-01-28T13:02:53.765Z,55.90
2023-01-28T13:05:28.694Z,55.80
2023-01-28T13:08:06.745Z,55.80
2023-01-28T13:10:38.424Z,55.90
2023-01-28T13:13:08.382Z,56.00
2023-01-28T13:15:42.097Z,55.90
2023-01-28T13:18:36.788Z,56.00
2023-01-28T13:21:07.272Z,56.10
2023-01-28T13:23:45.759Z,56.20
2023-01-28T13:26:21.892Z,56.10
2023-01-28T13:28:54.117Z,56.10
2023-01-28T13:31:26.636Z,56.40
2023-01-28T13:33:58.351Z,56.30
2023-01-28T13:36:29.416Z,56.30
2023-01-28T13:39:08.388Z,56.30
2023-01-28T13:41:52.021Z,56.50
2023-01-28T13:44:22.426Z,56.60
2023-01-28T13:46:51.552Z,56.70
2023-01-28T13:49:41.584Z,56.70
2023-01-28T13:52:13.621Z,56.80
2023-01-28T13:55:33.742Z,56.80
2023-01-28T13:58:18.826Z,57.40
2023-01-28T14:01:06.038Z,56.90
2023-01-28T14:03:38.066Z,57.10
2023-01-28T14:06:56.342Z,57.30
2023-01-28T14:10:04.854Z,57.70
2023-01-28T14:12:53.818Z,57.50
2023-01-28T14:15:44.948Z,57.50
2023-01-28T14:18:27.895Z,57.70
2023-01-28T14:21:01.549Z,57.50
2023-01-28T14:23:33.543Z,57.50
2023-01-28T14:26:21.629Z,57.50
2023-01-28T14:29:23.082Z,57.70
2023-01-28T14:31:54.067Z,57.60
2023-01-28T14:34:36.256Z,57.80
2023-01-28T14:37:09.910Z,57.70
2023-01-28T14:39:46.879Z,57.70
2023-01-28T14:42:24.350Z,57.80
2023-01-28T14:45:18.369Z,57.90
2023-01-28T14:48:12.898Z,58.00
2023-01-28T14:51:32.546Z,58.50
2023-01-28T14:54:19.516Z,58.40
2023-01-28T14:56:57.649Z,58.30
2023-01-28T14:59:45.374Z,58.30
2023-01-28T15:02:31.895Z,58.40
2023-01-28T15:05:13.048Z,58.40
2023-01-28T15:07:46.921Z,58.50
2023-01-28T15:10:38.091Z,58.50
2023-01-28T15:13:11.286Z,58.40
2023-01-28T15:15:42.566Z,58.50
2023-01-28T15:18:33.492Z,58.50
2023-01-28T15:21:03.420Z,58.40
2023-01-28T15:23:44.296Z,58.50
2023-01-28T15:26:23.877Z,58.50
2023-01-28T15:28:54.417Z,58.50
2023-01-28T15:31:27.619Z,58.40
2023-01-28T15:33:59.321Z,58.50
2023-01-28T15:36:29.806Z,58.80
2023-01-28T15:38:59.799Z,58.70
2023-01-28T15:41:40.315Z,58.90
2023-01-28T15:44:17.524Z,58.70
2023-01-28T15:46:46.827Z,58.80
2023-01-28T15:49:17.514Z,58.80
2023-01-28T15:51:54.657Z,59.00
2023-01-28T15:54:24.754Z,59.00
2023-01-28T15:56:53.884Z,59.00
2023-01-28T15:59:35.131Z,58.90
2023-01-28T16:02:27.602Z,59.00
2023-01-28T16:05:03.884Z,59.00
2023-01-28T16:07:37.116Z,59.10
2023-01-28T16:10:06.435Z,59.20
2023-01-28T16:12:35.373Z,59.40
2023-01-28T16:15:07.471Z,59.40
2023-01-28T16:17:43.641Z,59.40
2023-01-28T16:20:30.130Z,59.20
2023-01-28T16:23:05.677Z,59.40
2023-01-28T16:25:39.214Z,59.40
2023-01-28T16:28:20.769Z,59.50
2023-01-28T16:30:49.718Z,59.40
2023-01-28T16:33:26.023Z,59.60
2023-01-28T16:36:07.684Z,59.60
2023-01-28T16:38:37.365Z,59.50
2023-01-28T16:41:06.509Z,59.90
2023-01-28T16:46:28.000Z,60.00
2023-01-28T16:48:56.915Z,60.60
2023-01-28T16:51:25.835Z,60.50
2023-01-28T16:53:54.846Z,60.70
2023-01-28T16:56:45.640Z,60.70
2023-01-28T16:59:16.976Z,60.40
2023-01-28T17:01:49.820Z,60.90
2023-01-28T17:04:18.830Z,61.10
2023-01-28T17:06:47.971Z,60.90
2023-01-28T17:09:17.002Z,61.30
2023-01-28T17:11:46.000Z,61.20
2023-01-28T17:14:14.836Z,61.60
2023-01-28T17:16:43.829Z,61.00
2023-01-28T17:19:12.746Z,61.30
2023-01-28T17:21:41.569Z,61.50
2023-01-28T17:24:10.939Z,61.10
2023-01-28T17:26:39.865Z,61.10
2023-01-28T17:29:09.661Z,61.30
2023-01-28T17:31:38.916Z,61.90
2023-01-28T17:34:08.074Z,61.80
2023-01-28T17:36:37.020Z,62.00
2023-01-28T17:39:08.536Z,62.20
2023-01-28T17:41:37.431Z,62.00
2023-01-28T17:44:06.877Z,62.20
2023-01-28T17:46:35.807Z,62.30
2023-01-28T17:49:04.973Z,62.10
2023-01-28T17:51:33.836Z,62.20
2023-01-28T17:54:02.779Z,62.60
2023-01-28T17:56:32.388Z,62.30
2023-01-28T17:59:04.633Z,62.40
2023-01-28T18:01:34.493Z,62.30
2023-01-28T18:04:03.679Z,62.30
2023-01-28T18:06:34.185Z,62.70
2023-01-28T18:09:03.441Z,62.90
2023-01-28T18:11:34.019Z,63.50
2023-01-28T18:14:02.947Z,62.90
2023-01-28T18:16:31.855Z,63.70
2023-01-28T18:19:00.756Z,62.90
2023-01-28T18:21:52.678Z,63.20
2023-01-28T18:24:24.913Z,62.90
2023-01-28T18:26:56.481Z,63.00
2023-01-28T18:29:25.971Z,62.60
2023-01-28T18:31:56.285Z,62.70
2023-01-28T18:34:26.925Z,63.00
2023-01-28T18:36:58.234Z,62.90
2023-01-28T18:39:32.058Z,63.20
2023-01-28T18:42:01.358Z,63.00
2023-01-28T18:44:31.426Z,63.30
2023-01-28T18:47:00.713Z,63.50
2023-01-28T18:49:29.658Z,63.60
2023-01-28T18:51:58.577Z,63.30
2023-01-28T18:54:27.984Z,63.40
2023-01-28T18:56:57.592Z,63.20
2023-01-28T18:59:26.779Z,63.20
2023-01-28T19:01:55.753Z,63.20
2023-01-28T19:04:24.726Z,63.00
2023-01-28T19:06:58.422Z,63.00
2023-01-28T19:09:27.402Z,63.10
2023-01-28T19:11:56.273Z,63.70
2023-01-28T19:14:25.206Z,63.60
2023-01-28T19:16:54.186Z,63.80
2023-01-28T19:19:25.714Z,63.80
2023-01-28T19:21:54.677Z,63.90
2023-01-28T19:24:23.659Z,64.00
2023-01-28T19:26:52.533Z,64.00
2023-01-28T19:29:21.458Z,64.30
2023-01-28T19:31:50.410Z,64.30
2023-01-28T19:34:19.478Z,64.50
2023-01-28T19:36:48.572Z,64.40
2023-01-28T19:39:18.396Z,64.30
2023-01-28T19:41:47.267Z,64.60
2023-01-28T19:44:16.109Z,65.30
2023-01-28T19:46:45.016Z,65.10
2023-01-28T19:49:14.172Z,64.70
2023-01-28T19:51:43.375Z,65.10
2023-01-28T19:54:13.012Z,65.40
2023-01-28T19:56:42.357Z,65.30
2023-01-28T19:59:11.227Z,65.40
2023-01-28T20:01:40.277Z,65.70
2023-01-28T20:04:09.506Z,65.20
2023-01-28T20:06:38.685Z,64.80
2023-01-28T20:09:15.332Z,65.00
2023-01-28T20:11:44.227Z,64.70
2023-01-28T20:14:13.104Z,65.50
2023-01-28T20:16:42.353Z,65.30
2023-01-28T20:19:17.462Z,65.30
2023-01-28T20:21:47.337Z,65.00
2023-01-28T20:24:17.250Z,64.80
2023-01-28T20:26:46.673Z,65.10
2023-01-28T20:29:21.814Z,65.00
2023-01-28T20:32:13.497Z,65.20
2023-01-28T20:34:40.872Z,65.40
2023-01-28T20:37:12.822Z,65.40
2023-01-28T20:39:41.732Z,65.60
2023-01-28T20:42:11.867Z,65.20
2023-01-28T20:44:43.646Z,65.30
2023-01-28T20:47:12.539Z,65.50
2023-01-28T20:49:41.435Z,65.20
2023-01-28T20:52:10.327Z,65.00
2023-01-28T20:54:39.253Z,65.40
2023-01-28T20:57:08.242Z,65.40
2023-01-28T20:59:38.005Z,65.20
2023-01-28T21:02:06.885Z,65.30
2023-01-28T21:04:37.088Z,65.60
2023-01-28T21:07:06.029Z,65.90
2023-01-28T21:09:34.956Z,65.50
2023-01-28T21:12:03.877Z,65.60
2023-01-28T21:14:32.783Z,65.70
2023-01-28T21:17:01.698Z,65.80
2023-01-28T21:19:30.615Z,65.40
2023-01-28T21:21:59.517Z,65.60
2023-01-28T21:24:28.479Z,65.70
2023-01-28T21:26:57.368Z,66.00
2023-01-28T21:29:26.247Z,65.60
2023-01-28T21:31:55.162Z,66.20
2023-01-28T21:34:25.894Z,66.10
2023-01-28T21:36:54.846Z,66.20
2023-01-28T21:39:24.006Z,66.00
2023-01-28T21:41:52.865Z,67.20
2023-01-28T21:44:21.832Z,66.30
2023-01-28T21:46:50.690Z,66.30
2023-01-28T21:49:19.685Z,66.10
2023-01-28T21:51:48.653Z,66.20
2023-01-28T21:54:22.072Z,66.30
2023-01-28T21:56:52.712Z,66.30
2023-01-28T21:59:31.291Z,66.40
2023-01-28T22:02:00.230Z,66.30
2023-01-28T22:04:33.667Z,66.20
2023-01-28T22:07:03.648Z,66.60
2023-01-28T22:09:34.565Z,66.60
2023-01-28T22:12:04.965Z,66.50
2023-01-28T22:14:34.274Z,66.60
2023-01-28T22:17:03.915Z,66.80
2023-01-28T22:19:32.839Z,66.90
2023-01-28T22:22:01.711Z,66.80
2023-01-28T22:24:31.568Z,66.60
2023-01-28T22:27:00.852Z,66.80
2023-01-28T22:29:29.756Z,66.90
2023-01-28T22:31:58.702Z,66.90
2023-01-28T22:34:28.389Z,67.00
2023-01-28T22:36:57.196Z,67.10
2023-01-28T22:39:26.125Z,66.50
2023-01-28T22:41:55.056Z,67.00
2023-01-28T22:44:23.935Z,67.10
2023-01-28T22:46:52.827Z,67.20
2023-01-28T22:49:23.209Z,67.30
2023-01-28T22:51:52.126Z,67.50
2023-01-28T22:54:21.013Z,67.60
2023-01-28T22:56:49.903Z,67.50
2023-01-28T22:59:18.754Z,67.60
2023-01-28T23:01:47.760Z,67.60
2023-01-28T23:04:16.729Z,67.80
2023-01-28T23:06:45.555Z,67.90
2023-01-28T23:09:14.674Z,68.10
2023-01-28T23:11:43.597Z,68.00
2023-01-28T23:14:30.512Z,69.10
2023-01-28T23:17:17.778Z,68.50
2023-01-28T23:20:04.669Z,68.30
2023-01-28T23:22:54.407Z,68.80
2023-01-28T23:25:25.101Z,69.00
2023-01-28T23:27:54.031Z,70.20
2023-01-28T23:30:26.395Z,69.60
2023-01-28T23:32:59.794Z,69.20
2023-01-28T23:35:28.898Z,69.60
2023-01-28T23:37:58.089Z,69.60
2023-01-28T23:40:28.293Z,69.40
2023-01-28T23:42:58.030Z,69.20
2023-01-28T23:45:26.939Z,69.00
2023-01-28T23:47:55.843Z,69.90
2023-01-28T23:50:24.892Z,69.40
2023-01-28T23:52:53.865Z,69.30
2023-01-28T23:55:22.720Z,69.10
2023-01-28T23:57:51.551Z,69.00
